sensor_id;sensor_type;location;lat;lon;timestamp;pressure;altitude;pressure_sealevel;temperature;humidity
43039;BME280;62252;50.668;19.530;2022-07-23T00:00:27;98089.78;;;18.84;82.43
43039;BME280;62252;50.668;19.530;2022-07-23T00:02:55;98083.94;;;18.80;82.52
43039;BME280;62252;50.668;19.530;2022-07-23T00:05:22;98090.53;;;18.76;82.71
43039;BME280;62252;50.668;19.530;2022-07-23T00:07:52;98089.28;;;18.61;83.66
43039;BME280;62252;50.668;19.530;2022-07-23T00:10:22;98088.19;;;18.54;84.72
43039;BME280;62252;50.668;19.530;2022-07-23T00:12:49;98088.19;;;18.54;84.82
43039;BME280;62252;50.668;19.530;2022-07-23T00:15:17;98079.25;;;18.55;84.65
43039;BME280;62252;50.668;19.530;2022-07-23T00:17:45;98083.34;;;18.50;84.91
43039;BME280;62252;50.668;19.530;2022-07-23T00:20:13;98090.75;;;18.46;85.40
43039;BME280;62252;50.668;19.530;2022-07-23T00:22:46;98097.22;;;18.44;85.99
43039;BME280;62252;50.668;19.530;2022-07-23T00:25:15;98098.50;;;18.40;86.25
43039;BME280;62252;50.668;19.530;2022-07-23T00:27:42;98087.59;;;18.33;86.67
43039;BME280;62252;50.668;19.530;2022-07-23T00:30:12;98088.88;;;18.29;86.75
43039;BME280;62252;50.668;19.530;2022-07-23T00:32:48;98092.34;;;18.30;86.54
43039;BME280;62252;50.668;19.530;2022-07-23T00:35:16;98092.22;;;18.31;86.03
43039;BME280;62252;50.668;19.530;2022-07-23T00:37:46;98095.59;;;18.33;85.74
43039;BME280;62252;50.668;19.530;2022-07-23T00:40:16;98088.56;;;18.32;85.58
43039;BME280;62252;50.668;19.530;2022-07-23T00:42:43;98084.09;;;18.33;85.30
43039;BME280;62252;50.668;19.530;2022-07-23T00:45:11;98092.22;;;18.31;85.39
43039;BME280;62252;50.668;19.530;2022-07-23T00:47:39;98095.72;;;18.32;85.28
43039;BME280;62252;50.668;19.530;2022-07-23T00:50:08;98092.50;;;18.28;85.77
43039;BME280;62252;50.668;19.530;2022-07-23T00:52:36;98099.09;;;18.24;86.18
43039;BME280;62252;50.668;19.530;2022-07-23T00:55:06;98097.72;;;18.20;86.55
43039;BME280;62252;50.668;19.530;2022-07-23T00:57:37;98099.97;;;18.15;87.11
43039;BME280;62252;50.668;19.530;2022-07-23T01:00:07;98096.31;;;18.16;87.47
43039;BME280;62252;50.668;19.530;2022-07-23T01:02:37;98095.91;;;18.21;87.39
43039;BME280;62252;50.668;19.530;2022-07-23T01:05:06;98092.81;;;18.25;87.16
43039;BME280;62252;50.668;19.530;2022-07-23T01:07:34;98096.28;;;18.26;87.11
43039;BME280;62252;50.668;19.530;2022-07-23T01:10:03;98096.44;;;18.24;87.32
43039;BME280;62252;50.668;19.530;2022-07-23T01:12:30;98096.19;;;18.18;87.82
43039;BME280;62252;50.668;19.530;2022-07-23T01:15:00;98094.53;;;18.07;88.43
43039;BME280;62252;50.668;19.530;2022-07-23T01:17:30;98098.78;;;17.91;89.61
43039;BME280;62252;50.668;19.530;2022-07-23T01:19:58;98097.34;;;17.77;90.51
43039;BME280;62252;50.668;19.530;2022-07-23T01:22:29;98095.38;;;17.79;91.13
43039;BME280;62252;50.668;19.530;2022-07-23T01:24:57;98093.44;;;17.91;90.34
43039;BME280;62252;50.668;19.530;2022-07-23T01:27:26;98097.34;;;17.96;89.78
43039;BME280;62252;50.668;19.530;2022-07-23T01:30:00;98082.63;;;18.02;89.18
43039;BME280;62252;50.668;19.530;2022-07-23T01:32:27;98092.84;;;18.06;88.92
43039;BME280;62252;50.668;19.530;2022-07-23T01:34:55;98094.09;;;18.12;88.61
43039;BME280;62252;50.668;19.530;2022-07-23T01:37:22;98086.66;;;18.15;88.62
43039;BME280;62252;50.668;19.530;2022-07-23T01:39:51;98100.00;;;18.06;88.93
43039;BME280;62252;50.668;19.530;2022-07-23T01:42:19;98088.66;;;17.94;89.57
43039;BME280;62252;50.668;19.530;2022-07-23T01:44:47;98090.50;;;17.84;90.22
43039;BME280;62252;50.668;19.530;2022-07-23T01:47:19;98092.31;;;17.84;90.56
43039;BME280;62252;50.668;19.530;2022-07-23T01:49:50;98086.28;;;17.82;90.76
43039;BME280;62252;50.668;19.530;2022-07-23T01:52:38;98086.28;;;17.82;90.85
43039;BME280;62252;50.668;19.530;2022-07-23T01:55:08;98085.16;;;17.84;91.04
43039;BME280;62252;50.668;19.530;2022-07-23T01:57:39;98085.72;;;17.78;91.27
43039;BME280;62252;50.668;19.530;2022-07-23T02:00:08;98081.94;;;17.71;92.00
43039;BME280;62252;50.668;19.530;2022-07-23T02:02:46;98078.31;;;17.62;92.54
43039;BME280;62252;50.668;19.530;2022-07-23T02:05:14;98086.28;;;17.53;93.02
43039;BME280;62252;50.668;19.530;2022-07-23T02:07:42;98089.22;;;17.50;92.93
43039;BME280;62252;50.668;19.530;2022-07-23T02:10:11;98092.59;;;17.52;92.47
43039;BME280;62252;50.668;19.530;2022-07-23T02:12:41;98093.28;;;17.54;92.28
43039;BME280;62252;50.668;19.530;2022-07-23T02:15:11;98095.81;;;17.55;92.22
43039;BME280;62252;50.668;19.530;2022-07-23T02:17:40;98100.13;;;17.56;92.21
43039;BME280;62252;50.668;19.530;2022-07-23T02:20:09;98092.00;;;17.58;92.08
43039;BME280;62252;50.668;19.530;2022-07-23T02:22:37;98099.59;;;17.53;92.78
43039;BME280;62252;50.668;19.530;2022-07-23T02:25:06;98098.19;;;17.49;93.47
43039;BME280;62252;50.668;19.530;2022-07-23T02:27:35;98093.72;;;17.40;93.75
43039;BME280;62252;50.668;19.530;2022-07-23T02:30:06;98101.25;;;17.35;93.95
43039;BME280;62252;50.668;19.530;2022-07-23T02:32:34;98096.50;;;17.29;93.77
43039;BME280;62252;50.668;19.530;2022-07-23T02:35:03;98089.75;;;17.25;94.05
43039;BME280;62252;50.668;19.530;2022-07-23T02:37:31;98086.00;;;17.18;94.59
43039;BME280;62252;50.668;19.530;2022-07-23T02:39:59;98080.94;;;17.15;94.75
43039;BME280;62252;50.668;19.530;2022-07-23T02:42:27;98084.16;;;17.09;95.52
43039;BME280;62252;50.668;19.530;2022-07-23T02:44:56;98083.88;;;17.02;96.16
43039;BME280;62252;50.668;19.530;2022-07-23T02:47:23;98088.03;;;16.95;97.04
43039;BME280;62252;50.668;19.530;2022-07-23T02:49:51;98091.78;;;16.93;97.17
43039;BME280;62252;50.668;19.530;2022-07-23T02:52:19;98093.09;;;16.98;97.15
43039;BME280;62252;50.668;19.530;2022-07-23T02:54:47;98091.72;;;17.04;96.39
43039;BME280;62252;50.668;19.530;2022-07-23T02:57:16;98094.78;;;17.09;95.78
43039;BME280;62252;50.668;19.530;2022-07-23T02:59:43;98093.94;;;17.08;95.66
43039;BME280;62252;50.668;19.530;2022-07-23T03:02:12;98093.94;;;17.08;95.72
43039;BME280;62252;50.668;19.530;2022-07-23T03:04:40;98088.78;;;17.16;95.55
43039;BME280;62252;50.668;19.530;2022-07-23T03:07:08;98085.56;;;17.22;95.61
43039;BME280;62252;50.668;19.530;2022-07-23T03:09:35;98092.00;;;17.29;95.18
43039;BME280;62252;50.668;19.530;2022-07-23T03:12:03;98088.09;;;17.33;94.86
43039;BME280;62252;50.668;19.530;2022-07-23T03:14:34;98095.66;;;17.38;95.13
43039;BME280;62252;50.668;19.530;2022-07-23T03:17:01;98090.06;;;17.41;95.07
43039;BME280;62252;50.668;19.530;2022-07-23T03:19:31;98096.66;;;17.37;95.02
43039;BME280;62252;50.668;19.530;2022-07-23T03:22:01;98094.13;;;17.35;95.21
43039;BME280;62252;50.668;19.530;2022-07-23T03:24:29;98094.69;;;17.39;95.12
43039;BME280;62252;50.668;19.530;2022-07-23T03:27:11;98095.41;;;17.41;95.07
43039;BME280;62252;50.668;19.530;2022-07-23T03:29:38;98090.22;;;17.39;95.08
43039;BME280;62252;50.668;19.530;2022-07-23T03:32:06;98091.88;;;17.50;94.98
43039;BME280;62252;50.668;19.530;2022-07-23T03:34:35;98082.78;;;17.72;94.08
43039;BME280;62252;50.668;19.530;2022-07-23T03:37:04;98081.66;;;17.93;92.73
43039;BME280;62252;50.668;19.530;2022-07-23T03:39:31;98082.78;;;18.00;91.55
43039;BME280;62252;50.668;19.530;2022-07-23T03:41:59;98083.34;;;17.94;91.93
43039;BME280;62252;50.668;19.530;2022-07-23T03:44:27;98088.09;;;18.00;92.73
43039;BME280;62252;50.668;19.530;2022-07-23T03:46:54;98096.75;;;18.21;92.70
43039;BME280;62252;50.668;19.530;2022-07-23T03:49:22;98095.59;;;18.33;91.85
43039;BME280;62252;50.668;19.530;2022-07-23T03:51:51;98090.66;;;18.38;91.58
43039;BME280;62252;50.668;19.530;2022-07-23T03:54:19;98100.50;;;18.74;90.52
43039;BME280;62252;50.668;19.530;2022-07-23T03:56:46;98095.09;;;19.11;89.22
43039;BME280;62252;50.668;19.530;2022-07-23T04:02:05;98086.25;;;19.55;87.24
43039;BME280;62252;50.668;19.530;2022-07-23T04:04:32;98081.28;;;19.77;86.00
43039;BME280;62252;50.668;19.530;2022-07-23T04:07:02;98076.91;;;19.94;85.56
43039;BME280;62252;50.668;19.530;2022-07-23T04:09:30;98082.84;;;20.23;85.39
43039;BME280;62252;50.668;19.530;2022-07-23T04:11:58;98072.38;;;20.37;85.23
43039;BME280;62252;50.668;19.530;2022-07-23T04:14:25;98077.19;;;20.26;85.40
43039;BME280;62252;50.668;19.530;2022-07-23T04:16:53;98074.56;;;20.16;85.88
43039;BME280;62252;50.668;19.530;2022-07-23T04:19:21;98083.34;;;20.26;86.14
43039;BME280;62252;50.668;19.530;2022-07-23T04:22:01;98068.25;;;20.43;85.20
43039;BME280;62252;50.668;19.530;2022-07-23T04:24:32;98056.81;;;20.58;84.79
43039;BME280;62252;50.668;19.530;2022-07-23T04:26:59;98063.97;;;20.58;84.91
43039;BME280;62252;50.668;19.530;2022-07-23T04:29:27;98079.81;;;20.51;85.44
43039;BME280;62252;50.668;19.530;2022-07-23T04:31:55;98072.13;;;20.48;86.03
43039;BME280;62252;50.668;19.530;2022-07-23T04:34:22;98079.13;;;20.49;86.12
43039;BME280;62252;50.668;19.530;2022-07-23T04:36:53;98074.19;;;20.62;86.14
43039;BME280;62252;50.668;19.530;2022-07-23T04:39:22;98080.81;;;20.84;86.69
43039;BME280;62252;50.668;19.530;2022-07-23T04:41:49;98073.66;;;21.42;85.90
43039;BME280;62252;50.668;19.530;2022-07-23T04:44:17;98072.69;;;21.99;83.74
43039;BME280;62252;50.668;19.530;2022-07-23T04:46:44;98067.81;;;22.43;81.72
43039;BME280;62252;50.668;19.530;2022-07-23T04:49:12;98061.25;;;22.92;80.49
43039;BME280;62252;50.668;19.530;2022-07-23T04:51:40;98051.25;;;23.16;79.08
43039;BME280;62252;50.668;19.530;2022-07-23T04:54:07;98053.41;;;23.21;79.06
43039;BME280;62252;50.668;19.530;2022-07-23T04:56:37;98056.41;;;23.26;78.55
43039;BME280;62252;50.668;19.530;2022-07-23T04:59:05;98054.63;;;23.18;78.44
43039;BME280;62252;50.668;19.530;2022-07-23T05:01:32;98058.84;;;23.13;79.42
43039;BME280;62252;50.668;19.530;2022-07-23T05:04:00;98050.50;;;23.30;79.10
43039;BME280;62252;50.668;19.530;2022-07-23T05:06:31;98053.00;;;23.32;79.31
43039;BME280;62252;50.668;19.530;2022-07-23T05:08:59;98055.63;;;23.17;79.46
43039;BME280;62252;50.668;19.530;2022-07-23T05:11:26;98053.50;;;22.97;80.34
43039;BME280;62252;50.668;19.530;2022-07-23T05:13:55;98052.06;;;22.86;81.49
43039;BME280;62252;50.668;19.530;2022-07-23T05:16:23;98056.56;;;22.86;82.47
43039;BME280;62252;50.668;19.530;2022-07-23T05:18:53;98060.63;;;22.82;83.71
43039;BME280;62252;50.668;19.530;2022-07-23T05:21:20;98062.66;;;22.80;83.98
43039;BME280;62252;50.668;19.530;2022-07-23T05:23:49;98055.25;;;22.90;82.35
43039;BME280;62252;50.668;19.530;2022-07-23T05:26:17;98054.50;;;23.04;81.82
43039;BME280;62252;50.668;19.530;2022-07-23T05:28:44;98042.63;;;23.29;81.56
43039;BME280;62252;50.668;19.530;2022-07-23T05:31:13;98043.47;;;23.52;80.39
43039;BME280;62252;50.668;19.530;2022-07-23T05:33:41;98052.78;;;23.64;77.45
43039;BME280;62252;50.668;19.530;2022-07-23T05:36:09;98044.34;;;23.75;75.55
43039;BME280;62252;50.668;19.530;2022-07-23T05:38:43;98056.75;;;23.99;74.31
43039;BME280;62252;50.668;19.530;2022-07-23T05:41:11;98053.22;;;24.13;73.92
43039;BME280;62252;50.668;19.530;2022-07-23T05:43:38;98046.19;;;24.26;73.60
43039;BME280;62252;50.668;19.530;2022-07-23T05:46:10;98048.75;;;24.42;73.32
43039;BME280;62252;50.668;19.530;2022-07-23T05:48:42;98044.69;;;24.46;73.14
43039;BME280;62252;50.668;19.530;2022-07-23T05:51:32;98047.09;;;24.56;72.48
43039;BME280;62252;50.668;19.530;2022-07-23T05:54:00;98044.00;;;24.73;71.26
43039;BME280;62252;50.668;19.530;2022-07-23T05:56:32;98044.75;;;24.96;70.10
43039;BME280;62252;50.668;19.530;2022-07-23T05:58:59;98036.78;;;25.03;68.40
43039;BME280;62252;50.668;19.530;2022-07-23T06:01:27;98033.50;;;25.07;67.94
43039;BME280;62252;50.668;19.530;2022-07-23T06:04:16;98037.41;;;25.19;67.79
43039;BME280;62252;50.668;19.530;2022-07-23T06:06:55;98035.22;;;25.29;67.32
43039;BME280;62252;50.668;19.530;2022-07-23T06:09:22;98027.66;;;25.39;67.57
43039;BME280;62252;50.668;19.530;2022-07-23T06:11:50;98023.16;;;25.46;66.90
43039;BME280;62252;50.668;19.530;2022-07-23T06:14:18;98018.97;;;25.58;66.73
43039;BME280;62252;50.668;19.530;2022-07-23T06:16:55;98019.09;;;25.71;66.35
43039;BME280;62252;50.668;19.530;2022-07-23T06:19:24;98014.59;;;25.78;65.88
43039;BME280;62252;50.668;19.530;2022-07-23T06:21:52;98018.56;;;25.82;65.68
43039;BME280;62252;50.668;19.530;2022-07-23T06:24:19;98007.66;;;25.90;65.61
43039;BME280;62252;50.668;19.530;2022-07-23T06:26:48;98013.53;;;26.00;65.38
43039;BME280;62252;50.668;19.530;2022-07-23T06:29:16;98004.34;;;26.16;65.64
43039;BME280;62252;50.668;19.530;2022-07-23T06:31:43;97995.69;;;26.27;65.07
43039;BME280;62252;50.668;19.530;2022-07-23T06:34:13;98000.34;;;26.39;64.63
43039;BME280;62252;50.668;19.530;2022-07-23T06:36:42;97995.81;;;26.46;64.92
43039;BME280;62252;50.668;19.530;2022-07-23T06:39:10;97999.19;;;26.55;65.51
43039;BME280;62252;50.668;19.530;2022-07-23T06:41:38;97998.44;;;26.68;64.41
43039;BME280;62252;50.668;19.530;2022-07-23T06:44:06;98000.59;;;26.79;63.85
43039;BME280;62252;50.668;19.530;2022-07-23T06:46:35;98003.34;;;26.92;63.05
43039;BME280;62252;50.668;19.530;2022-07-23T06:49:04;98002.13;;;27.01;62.74
43039;BME280;62252;50.668;19.530;2022-07-23T06:51:32;97996.75;;;27.14;62.77
43039;BME280;62252;50.668;19.530;2022-07-23T06:54:02;98003.66;;;27.23;62.14
43039;BME280;62252;50.668;19.530;2022-07-23T06:56:30;97997.47;;;27.29;61.66
43039;BME280;62252;50.668;19.530;2022-07-23T06:58:59;97996.66;;;27.35;61.00
43039;BME280;62252;50.668;19.530;2022-07-23T07:01:27;98000.41;;;27.40;61.74
43039;BME280;62252;50.668;19.530;2022-07-23T07:03:55;97992.13;;;27.55;61.48
43039;BME280;62252;50.668;19.530;2022-07-23T07:06:23;97989.63;;;27.66;61.67
43039;BME280;62252;50.668;19.530;2022-07-23T07:08:53;97989.19;;;27.82;61.12
43039;BME280;62252;50.668;19.530;2022-07-23T07:11:23;97986.16;;;27.92;61.28
43039;BME280;62252;50.668;19.530;2022-07-23T07:13:51;97987.16;;;28.04;61.14
43039;BME280;62252;50.668;19.530;2022-07-23T07:16:19;97991.31;;;28.13;59.78
43039;BME280;62252;50.668;19.530;2022-07-23T07:18:46;97980.91;;;28.23;58.32
43039;BME280;62252;50.668;19.530;2022-07-23T07:21:14;97977.97;;;28.24;57.99
43039;BME280;62252;50.668;19.530;2022-07-23T07:23:44;97970.06;;;28.36;57.95
43039;BME280;62252;50.668;19.530;2022-07-23T07:26:16;97971.06;;;28.35;58.38
43039;BME280;62252;50.668;19.530;2022-07-23T07:28:50;97968.59;;;28.40;58.11
43039;BME280;62252;50.668;19.530;2022-07-23T07:31:18;97969.41;;;28.53;57.48
43039;BME280;62252;50.668;19.530;2022-07-23T07:33:45;97964.81;;;28.60;57.80
43039;BME280;62252;50.668;19.530;2022-07-23T07:36:13;97977.00;;;28.76;57.96
43039;BME280;62252;50.668;19.530;2022-07-23T07:38:41;97983.00;;;28.91;57.95
43039;BME280;62252;50.668;19.530;2022-07-23T07:41:08;97979.22;;;29.05;56.49
43039;BME280;62252;50.668;19.530;2022-07-23T07:43:36;97981.75;;;29.00;56.71
43039;BME280;62252;50.668;19.530;2022-07-23T07:46:05;97977.94;;;29.07;57.40
43039;BME280;62252;50.668;19.530;2022-07-23T07:48:35;97985.63;;;29.17;54.88
43039;BME280;62252;50.668;19.530;2022-07-23T07:51:04;97998.91;;;29.25;54.75
43039;BME280;62252;50.668;19.530;2022-07-23T07:53:31;97992.19;;;29.34;54.79
43039;BME280;62252;50.668;19.530;2022-07-23T07:55:59;97986.75;;;29.34;54.86
43039;BME280;62252;50.668;19.530;2022-07-23T07:58:27;97984.78;;;29.47;54.35
43039;BME280;62252;50.668;19.530;2022-07-23T08:00:55;97988.94;;;29.57;52.35
43039;BME280;62252;50.668;19.530;2022-07-23T08:03:23;97991.81;;;29.62;52.22
43039;BME280;62252;50.668;19.530;2022-07-23T08:05:51;97982.84;;;29.61;51.36
43039;BME280;62252;50.668;19.530;2022-07-23T08:08:19;97991.19;;;29.66;52.10
43039;BME280;62252;50.668;19.530;2022-07-23T08:10:47;97991.75;;;29.75;49.31
43039;BME280;62252;50.668;19.530;2022-07-23T08:13:15;97987.03;;;29.88;49.19
43039;BME280;62252;50.668;19.530;2022-07-23T08:15:43;97982.19;;;29.90;48.87
43039;BME280;62252;50.668;19.530;2022-07-23T08:18:11;97989.53;;;29.90;47.46
43039;BME280;62252;50.668;19.530;2022-07-23T08:20:40;97992.41;;;29.95;48.05
43039;BME280;62252;50.668;19.530;2022-07-23T08:23:08;97990.13;;;30.16;48.33
43039;BME280;62252;50.668;19.530;2022-07-23T08:25:38;97988.28;;;30.17;46.84
43039;BME280;62252;50.668;19.530;2022-07-23T08:28:07;97989.84;;;30.00;46.63
43039;BME280;62252;50.668;19.530;2022-07-23T08:30:35;97995.34;;;29.93;46.20
43039;BME280;62252;50.668;19.530;2022-07-23T08:33:05;98001.47;;;30.13;46.22
43039;BME280;62252;50.668;19.530;2022-07-23T08:35:35;97987.59;;;30.21;45.42
43039;BME280;62252;50.668;19.530;2022-07-23T08:38:08;97989.03;;;30.24;46.13
43039;BME280;62252;50.668;19.530;2022-07-23T08:40:37;97983.81;;;30.22;45.93
43039;BME280;62252;50.668;19.530;2022-07-23T08:43:07;97973.41;;;30.19;45.89
43039;BME280;62252;50.668;19.530;2022-07-23T08:45:40;97967.84;;;30.14;45.73
43039;BME280;62252;50.668;19.530;2022-07-23T08:48:11;97970.69;;;30.19;45.54
43039;BME280;62252;50.668;19.530;2022-07-23T08:50:42;97971.31;;;30.21;45.51
43039;BME280;62252;50.668;19.530;2022-07-23T08:53:11;97962.72;;;30.24;45.01
43039;BME280;62252;50.668;19.530;2022-07-23T08:55:39;97956.53;;;30.17;45.88
43039;BME280;62252;50.668;19.530;2022-07-23T08:58:07;97952.13;;;30.16;45.47
43039;BME280;62252;50.668;19.530;2022-07-23T09:00:34;97954.50;;;30.13;46.20
43039;BME280;62252;50.668;19.530;2022-07-23T09:03:02;97953.84;;;30.35;46.33
43039;BME280;62252;50.668;19.530;2022-07-23T09:05:30;97947.88;;;30.45;45.12
43039;BME280;62252;50.668;19.530;2022-07-23T09:08:09;97948.59;;;30.58;45.23
43039;BME280;62252;50.668;19.530;2022-07-23T09:10:47;97951.13;;;30.53;45.02
43039;BME280;62252;50.668;19.530;2022-07-23T09:13:35;97943.31;;;30.63;44.84
43039;BME280;62252;50.668;19.530;2022-07-23T09:16:06;97938.59;;;30.88;46.42
43039;BME280;62252;50.668;19.530;2022-07-23T09:18:40;97952.63;;;31.03;45.66
43039;BME280;62252;50.668;19.530;2022-07-23T09:21:18;97950.97;;;31.02;44.68
43039;BME280;62252;50.668;19.530;2022-07-23T09:23:48;97944.47;;;30.85;44.83
43039;BME280;62252;50.668;19.530;2022-07-23T09:26:32;97933.47;;;30.80;44.89
43039;BME280;62252;50.668;19.530;2022-07-23T09:29:06;97938.53;;;30.77;45.23
43039;BME280;62252;50.668;19.530;2022-07-23T09:31:42;97931.34;;;30.82;44.56
43039;BME280;62252;50.668;19.530;2022-07-23T09:34:17;97932.25;;;30.94;44.96
43039;BME280;62252;50.668;19.530;2022-07-23T09:36:46;97927.41;;;30.96;44.22
43039;BME280;62252;50.668;19.530;2022-07-23T09:39:16;97920.22;;;31.02;44.67
43039;BME280;62252;50.668;19.530;2022-07-23T09:41:46;97931.66;;;30.92;44.92
43039;BME280;62252;50.668;19.530;2022-07-23T09:44:16;97939.34;;;30.95;44.31
43039;BME280;62252;50.668;19.530;2022-07-23T09:46:45;97931.19;;;31.13;44.20
43039;BME280;62252;50.668;19.530;2022-07-23T09:49:16;97930.75;;;31.28;44.46
43039;BME280;62252;50.668;19.530;2022-07-23T09:51:45;97935.03;;;31.47;44.12
43039;BME280;62252;50.668;19.530;2022-07-23T09:54:32;97936.31;;;31.62;43.47
43039;BME280;62252;50.668;19.530;2022-07-23T09:57:04;97937.06;;;31.81;43.78
43039;BME280;62252;50.668;19.530;2022-07-23T09:59:35;97924.25;;;31.81;43.41
43039;BME280;62252;50.668;19.530;2022-07-23T10:02:05;97928.38;;;31.61;43.14
43039;BME280;62252;50.668;19.530;2022-07-23T10:04:43;97930.56;;;31.52;43.56
43039;BME280;62252;50.668;19.530;2022-07-23T10:07:17;97929.25;;;31.43;44.09
43039;BME280;62252;50.668;19.530;2022-07-23T10:09:53;97928.03;;;31.28;44.10
43039;BME280;62252;50.668;19.530;2022-07-23T10:12:43;97927.06;;;31.22;43.50
43039;BME280;62252;50.668;19.530;2022-07-23T10:15:40;97923.66;;;31.27;44.24
43039;BME280;62252;50.668;19.530;2022-07-23T10:18:10;97921.69;;;31.45;44.21
43039;BME280;62252;50.668;19.530;2022-07-23T10:20:38;97915.09;;;31.53;43.21
43039;BME280;62252;50.668;19.530;2022-07-23T10:23:20;97915.53;;;31.79;44.08
43039;BME280;62252;50.668;19.530;2022-07-23T10:25:56;97902.50;;;31.81;42.71
43039;BME280;62252;50.668;19.530;2022-07-23T10:28:45;97904.72;;;31.73;42.56
43039;BME280;62252;50.668;19.530;2022-07-23T10:31:28;97902.81;;;31.62;44.08
43039;BME280;62252;50.668;19.530;2022-07-23T10:34:20;97901.19;;;31.84;43.56
43039;BME280;62252;50.668;19.530;2022-07-23T10:36:54;97892.56;;;32.21;44.63
43039;BME280;62252;50.668;19.530;2022-07-23T10:39:28;97876.91;;;32.52;42.97
43039;BME280;62252;50.668;19.530;2022-07-23T10:42:08;97885.69;;;32.82;42.17
43039;BME280;62252;50.668;19.530;2022-07-23T10:44:41;97876.75;;;32.98;41.52
43039;BME280;62252;50.668;19.530;2022-07-23T10:47:12;97881.91;;;33.11;41.05
43039;BME280;62252;50.668;19.530;2022-07-23T10:50:17;97879.81;;;33.29;41.31
43039;BME280;62252;50.668;19.530;2022-07-23T10:53:07;97880.16;;;33.49;41.35
43039;BME280;62252;50.668;19.530;2022-07-23T10:55:49;97885.28;;;33.46;41.52
43039;BME280;62252;50.668;19.530;2022-07-23T10:58:21;97875.97;;;33.75;41.62
43039;BME280;62252;50.668;19.530;2022-07-23T11:00:50;97879.16;;;34.21;41.23
43039;BME280;62252;50.668;19.530;2022-07-23T11:03:30;97865.66;;;34.53;40.30
43039;BME280;62252;50.668;19.530;2022-07-23T11:06:02;97863.56;;;34.60;39.16
43039;BME280;62252;50.668;19.530;2022-07-23T11:08:30;97860.97;;;34.32;40.11
43039;BME280;62252;50.668;19.530;2022-07-23T11:11:10;97862.69;;;33.83;41.13
43039;BME280;62252;50.668;19.530;2022-07-23T11:13:46;97871.56;;;33.57;41.86
43039;BME280;62252;50.668;19.530;2022-07-23T11:19:07;97865.41;;;33.34;41.55
43039;BME280;62252;50.668;19.530;2022-07-23T11:21:45;97860.34;;;33.54;42.04
43039;BME280;62252;50.668;19.530;2022-07-23T11:24:15;97869.56;;;33.36;41.88
43039;BME280;62252;50.668;19.530;2022-07-23T11:26:46;97865.09;;;33.30;43.06
43039;BME280;62252;50.668;19.530;2022-07-23T11:32:20;97861.91;;;33.50;41.64
43039;BME280;62252;50.668;19.530;2022-07-23T11:34:52;97857.09;;;33.73;41.73
43039;BME280;62252;50.668;19.530;2022-07-23T11:37:28;97852.56;;;33.79;41.85
43039;BME280;62252;50.668;19.530;2022-07-23T11:39:57;97841.44;;;33.85;42.52
43039;BME280;62252;50.668;19.530;2022-07-23T11:42:25;97850.19;;;34.04;41.38
43039;BME280;62252;50.668;19.530;2022-07-23T11:44:52;97845.25;;;34.01;41.04
43039;BME280;62252;50.668;19.530;2022-07-23T11:47:23;97847.59;;;33.76;40.37
43039;BME280;62252;50.668;19.530;2022-07-23T11:49:56;97845.56;;;33.38;40.54
43039;BME280;62252;50.668;19.530;2022-07-23T11:52:25;97839.94;;;33.28;40.19
43039;BME280;62252;50.668;19.530;2022-07-23T11:54:55;97841.13;;;33.32;40.14
43039;BME280;62252;50.668;19.530;2022-07-23T11:57:24;97838.81;;;33.74;42.40
43039;BME280;62252;50.668;19.530;2022-07-23T11:59:55;97830.97;;;34.15;41.94
43039;BME280;62252;50.668;19.530;2022-07-23T12:02:23;97828.03;;;34.00;40.28
43039;BME280;62252;50.668;19.530;2022-07-23T12:04:53;97818.81;;;34.44;39.70
43039;BME280;62252;50.668;19.530;2022-07-23T12:07:33;97825.53;;;34.58;37.41
43039;BME280;62252;50.668;19.530;2022-07-23T12:10:04;97818.59;;;34.29;37.88
43039;BME280;62252;50.668;19.530;2022-07-23T12:12:36;97823.63;;;34.16;38.42
43039;BME280;62252;50.668;19.530;2022-07-23T12:15:06;97823.03;;;34.35;38.10
43039;BME280;62252;50.668;19.530;2022-07-23T12:17:37;97817.56;;;34.14;36.29
43039;BME280;62252;50.668;19.530;2022-07-23T12:20:07;97814.78;;;34.09;35.87
43039;BME280;62252;50.668;19.530;2022-07-23T12:22:39;97809.13;;;33.94;36.80
43039;BME280;62252;50.668;19.530;2022-07-23T12:25:10;97811.66;;;33.84;37.63
43039;BME280;62252;50.668;19.530;2022-07-23T12:27:37;97801.66;;;33.89;37.59
43039;BME280;62252;50.668;19.530;2022-07-23T12:30:23;97810.22;;;33.60;38.00
43039;BME280;62252;50.668;19.530;2022-07-23T12:32:52;97802.84;;;33.60;38.00
43039;BME280;62252;50.668;19.530;2022-07-23T12:35:21;97799.47;;;33.53;37.87
43039;BME280;62252;50.668;19.530;2022-07-23T12:37:52;97798.53;;;33.31;39.47
43039;BME280;62252;50.668;19.530;2022-07-23T12:40:22;97804.22;;;33.13;38.63
43039;BME280;62252;50.668;19.530;2022-07-23T12:42:51;97803.63;;;32.95;39.66
43039;BME280;62252;50.668;19.530;2022-07-23T12:45:19;97806.34;;;32.95;39.80
43039;BME280;62252;50.668;19.530;2022-07-23T12:47:54;97795.72;;;33.10;39.59
43039;BME280;62252;50.668;19.530;2022-07-23T12:50:43;97796.22;;;33.07;39.19
43039;BME280;62252;50.668;19.530;2022-07-23T12:53:16;97793.94;;;33.32;40.83
43039;BME280;62252;50.668;19.530;2022-07-23T12:55:44;97797.97;;;33.13;39.76
43039;BME280;62252;50.668;19.530;2022-07-23T12:58:17;97795.97;;;33.08;39.64
43039;BME280;62252;50.668;19.530;2022-07-23T13:01:03;97781.34;;;32.70;37.81
43039;BME280;62252;50.668;19.530;2022-07-23T13:03:34;97790.00;;;32.39;39.15
43039;BME280;62252;50.668;19.530;2022-07-23T13:06:03;97800.00;;;32.21;39.99
43039;BME280;62252;50.668;19.530;2022-07-23T13:08:34;97790.91;;;32.04;40.61
43039;BME280;62252;50.668;19.530;2022-07-23T13:11:02;97800.72;;;31.94;41.91
43039;BME280;62252;50.668;19.530;2022-07-23T13:13:32;97788.19;;;31.81;42.57
43039;BME280;62252;50.668;19.530;2022-07-23T13:16:00;97777.78;;;31.78;43.20